Akhiok, Alaska
Current Conditions -  °F | °C
As of 5:53 AM on Friday 28 Nov 2014 (Local Time) from PADQ Reporting Station
Overcast Overcast  
Wind Chill: 32°   Ceiling: 5500
Heat Index: 32°   Visibility: 10mi
Dew Point: 31°   Wind: 3mph
Humidity: 96%   Direction: 250°WSW
Pressure: 30.12"   Gusts: NA
Location:  57.454°N, 153.546°W
Report Text: PADQ 281453Z 25003KT 10SM BKN055 OVC070 00/M01 A3012 RMK AO2 SLP199 T00001006 56007
Loading
Personal Weather Stations






























Interactive Weather Map New forecast layout! Learn more

10-Day Weather Forecast

Advertisements
Track Severe Weather on mobile